Time;durP1;ratioP1;P1;durP2;ratioP2;P2;SDS_P1;SDS_P2;PMS_P1;PMS_P2;Temp;Humidity;BMP_temperature;BMP_pressure;BME280_temperature;BME280_humidity;BME280_pressure;Samples;Min_cycle;Max_cycle;Signal;HPM_P1;HPM_P2
2023/01/14 00:00:14;;;;;;;7.07;2.05;;;;;;;6.42;100.00;100841.91;6249130;28;20049;-71
2023/01/14 00:03:16;;;;;;;0.85;0.73;;;;;;;6.41;100.00;100848.91;6249039;28;20151;-71
2023/01/14 00:06:19;;;;;;;3.70;1.60;;;;;;;6.44;100.00;100847.94;6249279;28;20053;-71
2023/01/14 00:09:22;;;;;;;5.85;0.70;;;;;;;6.44;100.00;100851.38;6248987;28;20056;-71
2023/01/14 00:12:23;;;;;;;1.20;0.85;;;;;;;6.54;100.00;100852.81;6248652;28;20401;-71
2023/01/14 00:15:24;;;;;;;3.92;0.70;;;;;;;6.51;100.00;100854.66;6248913;28;20054;-71
2023/01/14 00:18:26;;;;;;;1.73;0.77;;;;;;;6.56;100.00;100858.81;6248685;28;20060;-71
2023/01/14 00:21:27;;;;;;;6.07;1.02;;;;;;;6.56;100.00;100860.56;6248541;28;20515;-71
2023/01/14 00:24:30;;;;;;;2.20;0.80;;;;;;;6.64;100.00;100871.59;6247503;28;20060;-71
2023/01/14 00:27:31;;;;;;;8.75;1.15;;;;;;;6.74;100.00;100872.97;6248752;28;20049;-70
2023/01/14 00:30:32;;;;;;;3.00;1.27;;;;;;;6.69;100.00;100869.69;6248260;28;20057;-70
2023/01/14 00:33:34;;;;;;;5.10;1.00;;;;;;;6.65;100.00;100852.41;6248413;28;20521;-71
2023/01/14 00:36:36;;;;;;;0.65;0.50;;;;;;;6.63;100.00;100874.25;6248328;28;20060;-71
2023/01/14 00:39:39;;;;;;;0.47;0.40;;;;;;;6.59;100.00;100863.06;6248348;28;20058;-71
2023/01/14 00:42:40;;;;;;;1.05;0.77;;;;;;;6.57;100.00;100873.56;6248127;28;20049;-71
2023/01/14 00:45:41;;;;;;;2.22;0.80;;;;;;;6.56;100.00;100868.41;6247778;28;20489;-71
2023/01/14 00:48:43;;;;;;;1.20;0.57;;;;;;;6.61;100.00;100883.00;6248063;28;20045;-71
2023/01/14 00:51:45;;;;;;;2.70;0.98;;;;;;;6.61;100.00;100879.53;6247707;28;20053;-71
2023/01/14 00:54:47;;;;;;;1.27;0.60;;;;;;;6.59;100.00;100881.34;6247892;28;20515;-71
2023/01/14 00:57:49;;;;;;;3.25;0.68;;;;;;;6.54;100.00;100881.53;6247758;28;20056;-71
2023/01/14 01:00:51;;;;;;;8.15;1.10;;;;;;;6.54;100.00;100893.69;6247627;28;20076;-71
2023/01/14 01:03:55;;;;;;;7.38;1.30;;;;;;;6.48;100.00;100892.16;6247619;28;20057;-71
2023/01/14 01:06:56;;;;;;;3.97;1.15;;;;;;;6.40;100.00;100875.88;6247698;28;20052;-71
2023/01/14 01:09:59;;;;;;;5.22;0.95;;;;;;;6.38;100.00;100892.53;6247378;28;20049;-71
2023/01/14 01:13:00;;;;;;;1.27;0.60;;;;;;;6.37;100.00;100893.44;6247481;28;20045;-71
2023/01/14 01:16:05;;;;;;;6.03;0.73;;;;;;;6.38;100.00;100905.56;6247361;28;20052;-71
2023/01/14 01:19:07;;;;;;;2.38;0.93;;;;;;;6.37;100.00;100906.50;6265074;28;20041;-71
2023/01/14 01:22:08;;;;;;;3.13;0.55;;;;;;;6.29;100.00;100914.56;6271608;28;20053;-71
2023/01/14 01:25:11;;;;;;;3.97;1.05;;;;;;;6.25;100.00;100913.81;6271695;28;20060;-71
2023/01/14 01:28:12;;;;;;;12.65;0.95;;;;;;;6.27;100.00;100926.81;6271755;28;20051;-71
2023/01/14 01:31:14;;;;;;;3.38;0.90;;;;;;;6.24;100.00;100925.16;6271666;28;20052;-71
2023/01/14 01:34:15;;;;;;;4.25;0.98;;;;;;;6.22;100.00;100924.34;6271481;28;20056;-71
2023/01/14 01:37:17;;;;;;;1.90;0.75;;;;;;;6.23;100.00;100925.22;6271570;28;20052;-71
2023/01/14 01:40:20;;;;;;;3.15;0.77;;;;;;;6.23;100.00;100920.00;6271564;28;20055;-70
2023/01/14 01:43:25;;;;;;;6.10;0.80;;;;;;;6.15;100.00;100925.44;6271594;28;20041;-70
2023/01/14 01:46:26;;;;;;;1.10;0.63;;;;;;;6.14;100.00;100923.75;6271698;28;20044;-71
2023/01/14 01:49:30;;;;;;;3.10;0.65;;;;;;;6.16;100.00;100931.50;6271235;28;20428;-71
2023/01/14 01:52:32;;;;;;;1.85;0.60;;;;;;;6.17;100.00;100926.25;6271696;28;20044;-71
2023/01/14 01:55:38;;;;;;;5.10;0.93;;;;;;;6.19;100.00;100941.88;6271343;28;20049;-71
2023/01/14 01:58:40;;;;;;;2.67;0.57;;;;;;;6.19;100.00;100957.53;6271645;28;20049;-71
2023/01/14 02:01:43;;;;;;;7.90;0.80;;;;;;;6.22;100.00;100955.69;6263228;28;20509;-71
2023/01/14 02:04:44;;;;;;;10.15;1.00;;;;;;;6.20;100.00;100952.25;6271250;28;20049;-71
2023/01/14 02:07:45;;;;;;;5.18;0.50;;;;;;;6.25;100.00;100958.16;6271415;28;20048;-71
2023/01/14 02:11:04;;;;;;;2.33;0.88;;;;;;;6.30;100.00;100963.22;6270926;28;20045;-71
2023/01/14 02:14:17;;;;;;;12.88;1.52;;;;;;;6.22;100.00;100968.72;6271397;28;20060;-71
2023/01/14 02:17:31;;;;;;;0.75;0.50;;;;;;;6.25;100.00;100960.78;6271153;28;20056;-71
2023/01/14 02:20:37;;;;;;;11.00;0.70;;;;;;;6.28;100.00;100962.44;6271175;28;20053;-70
2023/01/14 02:24:12;;;;;;;4.78;0.68;;;;;;;6.34;100.00;100964.84;6270960;28;20454;-70
2023/01/14 02:27:30;;;;;;;4.13;0.75;;;;;;;6.34;100.00;100967.47;6270916;28;20382;-71
2023/01/14 02:30:46;;;;;;;6.07;0.63;;;;;;;6.30;100.00;100964.09;6271046;28;20052;-73
2023/01/14 02:33:53;;;;;;;6.35;0.85;;;;;;;6.33;100.00;100966.59;6270842;28;20132;-73
2023/01/14 02:37:01;;;;;;;4.47;1.02;;;;;;;6.26;100.00;100967.69;6271051;28;20487;-72
2023/01/14 02:40:09;;;;;;;1.38;1.13;;;;;;;6.27;100.00;100964.22;6270662;28;20049;-73
2023/01/14 02:46:40;;;;;;;4.05;1.23;;;;;;;6.25;100.00;100960.78;6272981;28;20431;-72
2023/01/14 02:49:44;;;;;;;5.68;1.00;;;;;;;6.37;100.00;100956.94;6275600;28;20056;-72
2023/01/14 02:52:46;;;;;;;4.03;0.80;;;;;;;6.35;100.00;100961.31;6275543;28;20052;-73
2023/01/14 02:55:48;;;;;;;5.80;0.70;;;;;;;6.35;100.00;100959.56;6275456;28;20049;-73
2023/01/14 02:59:14;;;;;;;4.20;1.08;;;;;;;6.34;100.00;100955.25;6275231;28;20055;-73
2023/01/14 03:02:36;;;;;;;4.15;0.40;;;;;;;6.39;100.00;100949.88;6275209;28;20041;-73
2023/01/14 03:05:48;;;;;;;2.60;1.05;;;;;;;6.38;100.00;100963.00;6275287;28;20505;-72
2023/01/14 03:08:59;;;;;;;2.72;0.65;;;;;;;6.44;100.00;100960.19;6275215;28;20049;-72
2023/01/14 03:12:08;;;;;;;13.98;2.00;;;;;;;6.41;100.00;100952.47;6275102;28;20118;-73
2023/01/14 03:15:18;;;;;;;3.00;1.17;;;;;;;6.42;100.00;100949.78;6274836;28;20381;-73
2023/01/14 03:18:27;;;;;;;6.95;1.02;;;;;;;6.48;100.00;100964.41;6275238;28;20052;-73
2023/01/14 03:21:33;;;;;;;3.40;1.00;;;;;;;6.55;100.00;100958.09;6274617;28;20052;-72
2023/01/14 03:24:40;;;;;;;1.67;0.73;;;;;;;6.52;100.00;100964.25;6274936;28;20275;-72
2023/01/14 03:27:44;;;;;;;3.40;0.90;;;;;;;6.51;100.00;100959.09;6274761;28;20052;-73
2023/01/14 03:30:50;;;;;;;9.23;1.35;;;;;;;6.50;100.00;100960.84;6274743;28;20523;-73
2023/01/14 03:33:57;;;;;;;5.25;1.17;;;;;;;6.43;100.00;100958.47;6274490;28;20056;-72
2023/01/14 03:37:01;;;;;;;3.80;1.17;;;;;;;6.46;100.00;100967.06;6274703;28;20041;-72
2023/01/14 03:40:08;;;;;;;4.93;1.15;;;;;;;6.45;100.00;100960.16;6274329;28;20056;-73
2023/01/14 03:43:14;;;;;;;9.05;1.50;;;;;;;6.48;100.00;100967.84;6273380;28;20056;-72
2023/01/14 03:46:16;;;;;;;4.43;1.40;;;;;;;6.43;100.00;100968.91;6274188;28;20056;-72
2023/01/14 03:49:18;;;;;;;8.60;1.48;;;;;;;6.38;100.00;100966.47;6274178;28;20056;-72
2023/01/14 03:52:31;;;;;;;9.02;1.85;;;;;;;6.40;100.00;100976.84;6273944;28;20053;-73
2023/01/14 03:55:41;;;;;;;6.47;1.42;;;;;;;6.34;100.00;100976.13;6274206;28;20048;-72
2023/01/14 03:58:49;;;;;;;9.05;2.17;;;;;;;6.37;100.00;100966.53;6273793;28;20595;-73
2023/01/14 04:01:53;;;;;;;5.00;2.70;;;;;;;6.34;100.00;100972.69;6273974;28;20076;-73
2023/01/14 04:04:57;;;;;;;9.48;1.25;;;;;;;6.32;100.00;100970.13;6273742;28;20131;-72
2023/01/14 04:08:00;;;;;;;7.53;1.92;;;;;;;6.32;100.00;100972.75;6273939;28;20488;-72
2023/01/14 04:11:02;;;;;;;13.00;2.17;;;;;;;6.39;100.00;100978.59;6273583;28;20061;-73
2023/01/14 04:17:22;;;;;;;10.63;1.50;;;;;;;6.31;100.00;100980.59;6273711;28;20052;-72
2023/01/14 04:20:25;;;;;;;7.78;2.63;;;;;;;6.32;100.00;100977.97;6273478;28;20049;-73
2023/01/14 04:23:26;;;;;;;5.25;2.30;;;;;;;6.37;100.00;100979.56;6273446;28;20053;-72
2023/01/14 04:26:28;;;;;;;6.78;1.80;;;;;;;6.25;100.00;100973.81;6273211;28;20060;-72
2023/01/14 04:29:29;;;;;;;8.00;1.55;;;;;;;6.23;100.00;100974.78;6273160;28;20051;-72
2023/01/14 04:32:31;;;;;;;10.15;2.13;;;;;;;6.27;100.00;100964.22;6273390;28;20045;-72
2023/01/14 04:35:33;;;;;;;16.75;2.30;;;;;;;6.26;100.00;100967.69;6273136;28;20439;-70
2023/01/14 04:38:35;;;;;;;7.78;1.98;;;;;;;6.24;100.00;100963.44;6273391;28;20055;-71
2023/01/14 04:44:56;;;;;;;5.95;1.65;;;;;;;6.20;100.00;100970.50;6273140;28;20095;-73
2023/01/14 04:47:57;;;;;;;9.93;2.55;;;;;;;6.21;100.00;100974.81;6273052;28;20459;-72
2023/01/14 04:51:02;;;;;;;8.73;2.22;;;;;;;6.28;100.00;100970.28;6272342;28;20052;-73
2023/01/14 04:54:03;;;;;;;10.27;2.45;;;;;;;6.26;100.00;100980.75;6272750;28;20493;-71
2023/01/14 04:57:05;;;;;;;2.60;1.30;;;;;;;6.27;100.00;100964.22;6272614;28;20056;-73
2023/01/14 05:00:08;;;;;;;10.95;1.98;;;;;;;6.34;100.00;100950.03;6272566;28;20059;-72
2023/01/14 05:03:11;;;;;;;9.20;1.80;;;;;;;6.34;100.00;100955.25;6272504;28;20045;-72
2023/01/14 05:06:14;;;;;;;10.63;2.42;;;;;;;6.33;100.00;100966.59;6272452;28;20048;-72
2023/01/14 05:09:15;;;;;;;10.68;1.90;;;;;;;6.35;100.00;100962.19;6271962;28;20064;-73
2023/01/14 05:12:17;;;;;;;12.82;2.22;;;;;;;6.36;100.00;100944.78;6272279;28;20417;-72
2023/01/14 05:15:18;;;;;;;7.82;1.27;;;;;;;6.36;100.00;100955.22;6272187;28;20049;-72
2023/01/14 05:18:19;;;;;;;12.57;2.33;;;;;;;6.40;100.00;100956.81;6272379;28;20484;-72
2023/01/14 05:21:22;;;;;;;5.88;1.30;;;;;;;6.43;100.00;100956.72;6271906;28;20052;-72
2023/01/14 05:24:23;;;;;;;14.82;2.22;;;;;;;6.44;100.00;100962.78;6271815;28;20132;-72
2023/01/14 05:27:24;;;;;;;7.43;1.67;;;;;;;6.49;100.00;100955.66;6272102;28;20045;-72
2023/01/14 05:30:26;;;;;;;11.85;1.65;;;;;;;6.54;100.00;100961.56;6271720;28;20049;-72
2023/01/14 05:33:27;;;;;;;4.13;1.10;;;;;;;6.56;100.00;100957.16;6271827;28;20420;-72
2023/01/14 05:36:30;;;;;;;15.70;1.50;;;;;;;6.52;100.00;100951.19;6271585;28;20516;-72
2023/01/14 05:39:31;;;;;;;17.08;2.40;;;;;;;6.52;100.00;100939.91;6271940;28;20076;-73
2023/01/14 05:45:52;;;;;;;7.45;1.58;;;;;;;6.48;100.00;100930.47;6271680;28;20049;-72
2023/01/14 05:48:53;;;;;;;4.90;1.27;;;;;;;6.42;100.00;100928.06;6271344;28;20492;-72
2023/01/14 05:51:56;;;;;;;9.93;1.50;;;;;;;6.41;100.00;100929.81;6271575;28;20144;-72
2023/01/14 05:54:57;;;;;;;3.63;1.48;;;;;;;6.36;100.00;100931.75;6271330;28;20053;-72
2023/01/14 05:57:59;;;;;;;5.43;1.40;;;;;;;6.33;100.00;100935.28;6271692;28;20049;-72
2023/01/14 06:07:44;;;;;;;10.90;1.60;;;;;;;6.19;100.00;100918.38;6271355;28;20088;-72
2023/01/14 06:10:46;;;;;;;8.65;1.30;;;;;;;6.18;100.00;100908.84;6271343;28;20065;-72
2023/01/14 06:13:48;;;;;;;9.63;1.85;;;;;;;6.14;100.00;100918.53;6271015;28;20397;-72
2023/01/14 06:16:51;;;;;;;4.25;1.60;;;;;;;6.16;100.00;100906.28;6271492;28;20049;-72
2023/01/14 06:19:53;;;;;;;7.95;1.60;;;;;;;6.14;100.00;100909.84;6270922;28;20061;-72
2023/01/14 06:22:56;;;;;;;3.10;1.45;;;;;;;6.16;100.00;100900.22;6275808;28;20492;-72
2023/01/14 06:25:57;;;;;;;10.55;2.28;;;;;;;6.12;100.00;100901.22;6276094;28;20067;-72
2023/01/14 06:28:59;;;;;;;10.32;2.65;;;;;;;6.16;100.00;100892.38;6276293;28;20060;-71
2023/01/14 06:32:01;;;;;;;6.90;2.00;;;;;;;6.10;100.00;100888.22;6276086;28;20500;-72
2023/01/14 06:35:02;;;;;;;11.40;1.92;;;;;;;6.11;100.00;100887.31;6275784;28;20052;-72
2023/01/14 06:38:05;;;;;;;9.48;1.80;;;;;;;6.03;100.00;100879.72;6276200;28;20053;-72
2023/01/14 06:41:08;;;;;;;7.47;2.00;;;;;;;6.01;100.00;100878.09;6275473;28;20049;-72
2023/01/14 06:44:10;;;;;;;13.43;2.40;;;;;;;5.99;100.00;100887.69;6275439;28;20072;-72
2023/01/14 06:47:11;;;;;;;15.60;3.03;;;;;;;5.93;100.00;100867.03;6275640;28;20056;-72
2023/01/14 06:50:13;;;;;;;6.97;2.70;;;;;;;5.95;100.00;100873.03;6275489;28;20055;-72
2023/01/14 06:53:16;;;;;;;18.83;3.38;;;;;;;5.93;100.00;100873.09;6275237;28;20049;-71
2023/01/14 06:56:18;;;;;;;8.13;2.53;;;;;;;5.87;100.00;100869.81;6272038;28;20057;-71
2023/01/14 06:59:20;;;;;;;6.60;2.80;;;;;;;5.90;100.00;100867.09;6255955;28;20046;-72
2023/01/14 07:02:21;;;;;;;8.98;2.53;;;;;;;5.88;100.00;100861.09;6250696;28;20049;-72
2023/01/14 07:05:22;;;;;;;10.45;3.08;;;;;;;5.87;100.00;100868.06;6250478;28;20489;-72
2023/01/14 07:08:25;;;;;;;10.82;3.60;;;;;;;5.82;100.00;100860.38;6250376;28;20390;-72
2023/01/14 07:11:26;;;;;;;8.25;2.67;;;;;;;5.81;100.00;100857.81;6250299;28;20045;-72
2023/01/14 07:14:28;;;;;;;10.10;3.47;;;;;;;5.91;100.00;100855.78;6250097;28;20052;-71
2023/01/14 07:17:29;;;;;;;10.43;3.08;;;;;;;5.93;100.00;100844.41;6254981;28;20496;-72
2023/01/14 07:20:30;;;;;;;11.75;2.95;;;;;;;5.91;100.00;100840.97;6261251;28;20060;-73
2023/01/14 07:23:33;;;;;;;16.92;3.22;;;;;;;5.89;100.00;100828.88;6268559;28;20068;-73
2023/01/14 07:26:34;;;;;;;13.50;3.15;;;;;;;5.90;100.00;100825.38;6274366;28;20045;-71
2023/01/14 07:29:35;;;;;;;8.13;2.83;;;;;;;5.87;100.00;100815.06;6274741;28;20052;-72
2023/01/14 07:32:37;;;;;;;4.65;2.20;;;;;;;5.91;100.00;100803.63;6274238;28;20547;-72
2023/01/14 07:35:38;;;;;;;19.80;5.07;;;;;;;5.85;100.00;100796.81;6274624;28;20057;-72
2023/01/14 07:38:41;;;;;;;9.60;2.30;;;;;;;5.89;100.00;100792.38;6266305;28;20056;-72
2023/01/14 07:41:42;;;;;;;14.70;3.03;;;;;;;5.87;100.00;100797.66;6274258;28;20049;-72
2023/01/14 07:44:43;;;;;;;6.28;2.28;;;;;;;5.83;100.00;100796.88;6274297;28;20052;-72
2023/01/14 07:47:45;;;;;;;9.27;2.30;;;;;;;5.88;100.00;100794.13;6274204;28;20081;-72
2023/01/14 07:50:46;;;;;;;9.32;2.70;;;;;;;5.91;100.00;100795.78;6274060;28;20045;-72
2023/01/14 07:53:49;;;;;;;17.02;2.42;;;;;;;5.89;100.00;100788.00;6274037;28;20049;-72
2023/01/14 07:56:51;;;;;;;8.82;2.08;;;;;;;5.91;100.00;100787.97;6274267;28;20057;-72
2023/01/14 07:59:52;;;;;;;10.52;2.72;;;;;;;5.94;100.00;100787.88;6273898;28;20053;-72
2023/01/14 08:02:53;;;;;;;12.50;3.08;;;;;;;5.96;100.00;100779.13;6273796;28;20049;-72
2023/01/14 08:05:55;;;;;;;9.40;2.03;;;;;;;5.96;100.00;100778.25;6273709;28;20045;-73
2023/01/14 08:09:01;;;;;;;10.65;1.83;;;;;;;5.99;100.00;100778.13;6273576;28;20480;-73
2023/01/14 08:12:03;;;;;;;13.10;2.90;;;;;;;6.01;100.00;100781.56;6273669;28;20060;-73
2023/01/14 08:15:06;;;;;;;7.88;2.33;;;;;;;6.04;100.00;100782.31;6273439;28;20508;-72
2023/01/14 08:18:07;;;;;;;5.90;2.20;;;;;;;6.00;100.00;100775.50;6273609;28;20045;-73
2023/01/14 08:21:10;;;;;;;9.85;2.10;;;;;;;6.02;100.00;100781.50;6273248;28;20052;-72
2023/01/14 08:24:13;;;;;;;11.57;2.00;;;;;;;6.04;100.00;100761.44;6273552;28;20060;-73
2023/01/14 08:27:15;;;;;;;7.53;1.98;;;;;;;6.03;100.00;100764.94;6272233;28;20070;-72
2023/01/14 08:30:17;;;;;;;10.98;2.08;;;;;;;6.05;100.00;100752.72;6272993;28;20045;-70
2023/01/14 08:33:18;;;;;;;9.15;2.00;;;;;;;6.04;100.00;100756.22;6272942;28;20225;-72
2023/01/14 08:36:20;;;;;;;8.18;1.58;;;;;;;6.04;100.00;100758.84;6273152;28;20424;-71
2023/01/14 08:39:23;;;;;;;7.93;1.30;;;;;;;6.08;100.00;100749.13;6272912;28;20463;-73
2023/01/14 08:42:24;;;;;;;2.25;1.10;;;;;;;6.16;100.00;100741.03;6271175;28;20060;-72
2023/01/14 08:45:25;;;;;;;12.10;1.95;;;;;;;6.16;100.00;100731.47;6271318;28;20044;-72
2023/01/14 08:48:27;;;;;;;18.92;1.75;;;;;;;6.17;100.00;100729.69;6272602;28;20045;-72
2023/01/14 08:51:30;;;;;;;5.88;1.58;;;;;;;6.16;100.00;100720.16;6271436;28;20064;-74
2023/01/14 08:54:32;;;;;;;4.35;1.05;;;;;;;6.18;100.00;100708.78;6270467;28;20049;-74
2023/01/14 08:57:33;;;;;;;5.78;1.55;;;;;;;6.23;100.00;100711.22;6268381;28;20053;-74
2023/01/14 09:00:35;;;;;;;9.27;1.40;;;;;;;6.23;100.00;100700.78;6270130;28;20048;-74
2023/01/14 09:03:37;;;;;;;10.10;2.20;;;;;;;6.27;100.00;100684.13;6270487;28;20044;-73
2023/01/14 09:17:04;;;;;;;12.90;1.63;;;;;;;6.23;100.00;100682.53;6271374;28;20053;-74
2023/01/14 09:20:01;;;;;;;5.80;1.17;;;;;;;6.28;100.00;100655.34;6271828;28;20362;-74
2023/01/14 09:23:05;;;;;;;12.60;1.20;;;;;;;6.33;100.00;100658.63;6272499;28;20044;-74
2023/01/14 09:26:07;;;;;;;6.45;0.98;;;;;;;6.39;100.00;100639.28;6272084;28;20056;-74
2023/01/14 09:29:08;;;;;;;10.55;1.63;;;;;;;6.41;100.00;100644.47;6271957;28;20527;-74
2023/01/14 09:32:11;;;;;;;14.07;2.45;;;;;;;6.45;100.00;100641.69;6271783;28;20049;-74
2023/01/14 09:35:12;;;;;;;5.18;0.95;;;;;;;6.51;100.00;100635.38;6271790;28;20041;-74
2023/01/14 09:38:13;;;;;;;4.43;0.90;;;;;;;6.54;100.00;100620.44;6271817;28;20497;-73
2023/01/14 09:41:24;;;;;;;8.20;1.02;;;;;;;6.56;100.00;100617.75;6271695;28;20048;-74
2023/01/14 09:44:25;;;;;;;10.20;1.73;;;;;;;6.55;100.00;100626.50;6271513;28;20072;-74
2023/01/14 09:47:28;;;;;;;5.72;1.30;;;;;;;6.60;100.00;100616.72;6271834;28;20053;-74
2023/01/14 09:50:49;;;;;;;6.22;1.17;;;;;;;6.59;100.00;100607.22;6271144;28;20063;-74
2023/01/14 09:54:05;;;;;;;1.42;0.70;;;;;;;6.64;100.00;100584.38;6271573;28;20068;-74
2023/01/14 09:57:14;;;;;;;5.50;0.70;;;;;;;6.65;100.00;100577.38;6271344;28;20420;-73
2023/01/14 10:00:29;;;;;;;6.78;0.98;;;;;;;6.68;100.00;100575.50;6271275;28;20049;-74
2023/01/14 10:03:40;;;;;;;6.25;1.30;;;;;;;6.65;100.00;100567.78;6271369;28;20048;-74
2023/01/14 10:06:44;;;;;;;9.68;1.00;;;;;;;6.74;100.00;100559.59;6271582;28;20527;-74
2023/01/14 10:09:51;;;;;;;13.43;1.25;;;;;;;6.66;100.00;100552.97;6271156;28;20056;-74
2023/01/14 10:12:56;;;;;;;3.10;1.92;;;;;;;6.66;100.00;100539.91;6271492;28;20518;-74
2023/01/14 10:16:00;;;;;;;17.38;2.10;;;;;;;6.63;100.00;100542.63;6271317;28;20041;-73
2023/01/14 10:19:07;;;;;;;5.18;1.38;;;;;;;6.60;100.00;100538.41;6271395;28;20100;-74
2023/01/14 10:22:16;;;;;;;10.48;0.90;;;;;;;6.61;100.00;100529.66;6271134;28;20053;-74
2023/01/14 10:25:20;;;;;;;13.05;1.85;;;;;;;6.58;100.00;100516.72;6271240;28;20057;-74
2023/01/14 10:28:26;;;;;;;4.57;1.25;;;;;;;6.50;100.00;100504.00;6271151;28;20507;-74
2023/01/14 10:31:30;;;;;;;4.47;0.77;;;;;;;6.45;100.00;100499.84;6271085;28;20446;-74
2023/01/14 10:34:38;;;;;;;8.35;0.90;;;;;;;6.35;100.00;100496.75;6270840;28;20045;-74
2023/01/14 10:37:39;;;;;;;6.30;1.05;;;;;;;6.41;100.00;100503.53;6271300;28;20060;-74
2023/01/14 10:40:41;;;;;;;6.57;1.17;;;;;;;6.33;100.00;100486.41;6270673;28;20045;-74
2023/01/14 10:43:45;;;;;;;10.20;1.52;;;;;;;6.29;100.00;100484.81;6270892;28;20049;-74
2023/01/14 10:46:47;;;;;;;1.90;1.08;;;;;;;6.25;100.00;100464.97;6270931;28;20110;-74
2023/01/14 10:49:52;;;;;;;4.95;1.17;;;;;;;6.18;100.00;100454.84;6270720;28;20045;-74
2023/01/14 10:52:54;;;;;;;4.97;1.55;;;;;;;6.13;100.00;100435.91;6270882;28;20424;-74
2023/01/14 10:55:58;;;;;;;10.70;1.33;;;;;;;6.08;100.00;100434.31;6270803;28;20044;-74
2023/01/14 10:59:01;;;;;;;3.67;1.13;;;;;;;6.07;100.00;100421.34;6270714;28;20049;-74
2023/01/14 11:02:03;;;;;;;7.55;1.92;;;;;;;5.98;100.00;100391.25;6271038;28;20048;-74
2023/01/14 11:05:06;;;;;;;4.93;1.08;;;;;;;5.96;100.00;100395.72;6270409;28;20041;-72
2023/01/14 11:08:21;;;;;;;1.95;0.80;;;;;;;5.98;100.00;100379.97;6273439;28;20063;-72
2023/01/14 11:11:26;;;;;;;4.20;0.88;;;;;;;6.02;100.00;100374.59;6275051;28;20056;-72
2023/01/14 11:14:31;;;;;;;5.43;0.73;;;;;;;6.02;100.00;100361.53;6275360;28;20056;-72
2023/01/14 11:17:33;;;;;;;2.13;0.77;;;;;;;6.02;100.00;100339.84;6275258;28;20052;-73
2023/01/14 11:20:34;;;;;;;3.92;1.02;;;;;;;5.98;100.00;100327.81;6274664;28;20045;-72
2023/01/14 11:23:38;;;;;;;7.07;1.10;;;;;;;5.95;100.00;100305.34;6274954;28;20048;-72
2023/01/14 11:26:40;;;;;;;6.25;1.15;;;;;;;5.96;100.00;100298.38;6274664;28;20049;-72
2023/01/14 11:29:47;;;;;;;7.45;0.93;;;;;;;5.95;100.00;100279.25;6274639;28;20067;-73
2023/01/14 11:32:50;;;;;;;1.30;0.70;;;;;;;5.90;100.00;100272.50;6274829;28;20059;-73
2023/01/14 11:35:54;;;;;;;10.05;0.90;;;;;;;5.91;100.00;100262.00;6274624;28;20072;-73
2023/01/14 11:38:59;;;;;;;6.45;0.85;;;;;;;5.94;100.00;100242.78;6274542;28;20131;-73
2023/01/14 11:42:02;;;;;;;8.55;1.58;;;;;;;5.90;100.00;100247.25;6274467;28;20561;-73
2023/01/14 11:45:16;;;;;;;3.92;0.82;;;;;;;5.99;100.00;100225.19;6274188;28;20409;-73
2023/01/14 11:48:26;;;;;;;1.45;0.73;;;;;;;5.93;100.00;100207.22;6274622;28;20056;-72
2023/01/14 11:51:28;;;;;;;6.30;1.00;;;;;;;5.97;100.00;100203.56;6273914;28;20044;-73
2023/01/14 11:54:34;;;;;;;5.03;0.95;;;;;;;5.96;100.00;100196.66;6274297;28;20076;-72
2023/01/14 11:57:35;;;;;;;3.95;1.13;;;;;;;6.01;100.00;100173.81;6274031;28;20080;-73
2023/01/14 12:00:41;;;;;;;2.97;1.35;;;;;;;6.00;100.00;100175.59;6273839;28;20056;-73
2023/01/14 12:03:48;;;;;;;4.68;1.20;;;;;;;5.99;100.00;100160.00;6273933;28;20041;-73
2023/01/14 12:06:53;;;;;;;6.05;1.25;;;;;;;5.96;100.00;100144.50;6274197;28;20053;-72
2023/01/14 12:09:58;;;;;;;9.10;1.17;;;;;;;5.96;100.00;100132.31;6273684;28;20056;-73
2023/01/14 12:19:53;;;;;;;2.75;0.60;;;;;;;6.00;100.00;100114.75;6272328;28;20527;-73
2023/01/14 12:23:00;;;;;;;8.88;1.30;;;;;;;6.00;100.00;100099.09;6273587;28;20056;-73
2023/01/14 12:26:09;;;;;;;0.70;0.45;;;;;;;5.99;100.00;100098.25;6273415;28;20488;-73
2023/01/14 12:29:17;;;;;;;2.45;0.98;;;;;;;5.99;100.00;100097.41;6273361;28;20052;-73
2023/01/14 12:32:24;;;;;;;9.50;1.98;;;;;;;6.05;100.00;100079.72;6273332;28;20485;-73
2023/01/14 12:35:31;;;;;;;2.40;1.08;;;;;;;6.04;100.00;100056.31;6273164;28;20041;-74
2023/01/14 12:45:44;;;;;;;0.77;0.50;;;;;;;6.12;100.00;100025.50;6272721;28;20045;-74
2023/01/14 12:48:48;;;;;;;5.43;1.13;;;;;;;6.15;100.00;100014.09;6273001;28;20053;-74
2023/01/14 12:51:49;;;;;;;2.92;1.33;;;;;;;6.18;100.00;99999.16;6272732;28;20057;-74
2023/01/14 12:54:52;;;;;;;2.55;0.75;;;;;;;6.17;100.00;99997.44;6272677;28;20444;-74
2023/01/14 12:57:55;;;;;;;2.78;1.02;;;;;;;6.21;100.00;99977.25;6272465;28;20412;-74
2023/01/14 13:01:00;;;;;;;2.55;1.00;;;;;;;6.22;100.00;99963.28;6272457;28;20048;-74
2023/01/14 13:04:06;;;;;;;9.48;1.23;;;;;;;6.26;100.00;99951.78;6272281;28;20412;-73
2023/01/14 13:07:18;;;;;;;2.45;0.82;;;;;;;6.32;100.00;99936.72;6272675;28;20053;-73
2023/01/14 13:10:29;;;;;;;2.65;1.20;;;;;;;6.37;100.00;99919.97;6272182;28;20455;-73
2023/01/14 13:13:33;;;;;;;3.60;1.55;;;;;;;6.34;100.00;99905.31;6272610;28;20053;-73
2023/01/14 13:16:38;;;;;;;13.25;1.80;;;;;;;6.31;100.00;99908.94;6272233;28;20136;-74
2023/01/14 13:19:53;;;;;;;2.80;1.25;;;;;;;6.31;100.00;99889.78;6272705;28;20053;-73
2023/01/14 13:22:55;;;;;;;4.00;1.10;;;;;;;6.32;100.00;99863.66;6272142;28;20052;-73
2023/01/14 13:25:56;;;;;;;4.72;1.10;;;;;;;6.31;100.00;99858.47;6271976;28;20052;-73
2023/01/14 13:29:19;;;;;;;3.70;1.23;;;;;;;6.35;100.00;99849.59;6272507;28;20473;-73
2023/01/14 13:32:52;;;;;;;3.80;1.30;;;;;;;6.35;100.00;99826.94;6271709;28;20084;-74
2023/01/14 13:36:18;;;;;;;10.63;0.95;;;;;;;6.38;100.00;99818.13;6271794;28;20045;-73
2023/01/14 13:39:21;;;;;;;3.85;1.05;;;;;;;6.36;100.00;99809.53;6271789;28;20053;-73
2023/01/14 13:42:27;;;;;;;1.88;0.80;;;;;;;6.38;100.00;99801.63;6271555;28;20049;-74
2023/01/14 13:45:29;;;;;;;6.13;1.27;;;;;;;6.36;100.00;99791.28;6271484;28;20427;-74
2023/01/14 13:48:37;;;;;;;4.05;1.10;;;;;;;6.40;100.00;99784.13;6271562;28;20075;-73
2023/01/14 13:51:42;;;;;;;1.73;1.00;;;;;;;6.40;100.00;99774.50;6271478;28;20052;-73
2023/01/14 13:54:45;;;;;;;1.27;0.55;;;;;;;6.39;100.00;99774.59;6271418;28;20060;-74
2023/01/14 13:57:51;;;;;;;1.25;1.10;;;;;;;6.39;100.00;99766.78;6271576;28;20048;-73
2023/01/14 14:01:21;;;;;;;3.90;1.05;;;;;;;6.40;100.00;99751.03;6271239;28;20045;-74
2023/01/14 14:05:00;;;;;;;2.08;0.95;;;;;;;6.43;100.00;99750.03;6271339;28;20049;-73
2023/01/14 14:08:18;;;;;;;2.97;0.60;;;;;;;6.42;100.00;99741.38;6271498;28;20512;-73
2023/01/14 14:11:22;;;;;;;3.28;0.90;;;;;;;6.45;100.00;99736.00;6271056;28;20053;-73
2023/01/14 14:14:29;;;;;;;4.53;1.05;;;;;;;6.46;100.00;99719.41;6271216;28;20408;-73
2023/01/14 14:17:33;;;;;;;5.40;1.02;;;;;;;6.47;100.00;99699.38;6271214;28;20099;-73
2023/01/14 14:20:40;;;;;;;2.30;0.95;;;;;;;6.54;100.00;99691.16;6271375;28;20496;-73
2023/01/14 14:23:48;;;;;;;1.00;0.70;;;;;;;6.49;100.00;99685.31;6270984;28;20060;-73
2023/01/14 14:26:52;;;;;;;5.55;0.80;;;;;;;6.49;100.00;99682.69;6271155;28;20459;-73
2023/01/14 14:29:59;;;;;;;1.20;0.80;;;;;;;6.52;100.00;99671.25;6270995;28;20052;-74
2023/01/14 14:33:01;;;;;;;0.95;0.65;;;;;;;6.55;100.00;99669.34;6271245;28;20061;-73
2023/01/14 14:36:07;;;;;;;3.78;1.08;;;;;;;6.56;100.00;99655.34;6271046;28;20056;-73
2023/01/14 14:39:23;;;;;;;1.70;1.02;;;;;;;6.60;100.00;99649.03;6271111;28;20049;-73
2023/01/14 14:42:26;;;;;;;6.15;0.90;;;;;;;6.65;100.00;99640.13;6272652;28;20053;-74
2023/01/14 14:45:29;;;;;;;0.80;0.65;;;;;;;6.62;100.00;99622.84;6275863;28;20049;-74
2023/01/14 14:48:33;;;;;;;4.32;0.93;;;;;;;6.65;100.00;99619.22;6276068;28;20405;-73
2023/01/14 14:51:34;;;;;;;3.40;0.80;;;;;;;6.66;100.00;99600.03;6275423;28;20052;-73
2023/01/14 14:54:38;;;;;;;0.85;0.65;;;;;;;6.67;100.00;99594.72;6275570;28;20048;-73
2023/01/14 14:57:41;;;;;;;1.20;0.57;;;;;;;6.71;100.00;99569.28;6275704;28;20045;-74
2023/01/14 15:00:43;;;;;;;1.38;1.00;;;;;;;6.71;100.00;99570.13;6275233;28;20412;-73